createdAt,value
2023-03-19T00:01:19.881Z,10.05
2023-03-19T00:03:53.361Z,13.50
2023-03-19T00:06:27.292Z,13.38
2023-03-19T00:09:00.704Z,9.40
2023-03-19T00:11:34.436Z,13.98
2023-03-19T00:16:42.739Z,11.90
2023-03-19T00:19:16.216Z,11.07
2023-03-19T00:21:49.650Z,13.70
2023-03-19T00:24:23.004Z,9.68
2023-03-19T00:26:56.711Z,13.43
2023-03-19T00:29:31.087Z,12.18
2023-03-19T00:34:39.320Z,10.45
2023-03-19T00:37:13.343Z,10.73
2023-03-19T00:39:47.605Z,11.18
2023-03-19T00:42:21.357Z,12.57
2023-03-19T00:44:54.751Z,9.82
2023-03-19T00:47:29.460Z,12.93
2023-03-19T00:50:03.195Z,10.05
2023-03-19T00:52:36.525Z,14.73
2023-03-19T00:55:11.025Z,11.18
2023-03-19T00:57:44.392Z,12.50
2023-03-19T01:00:18.102Z,9.75
2023-03-19T01:02:52.838Z,11.85
2023-03-19T01:05:26.362Z,10.55
2023-03-19T01:07:59.680Z,10.45
2023-03-19T01:10:34.929Z,9.80
2023-03-19T01:13:09.427Z,12.82
2023-03-19T01:15:44.786Z,13.45
2023-03-19T01:18:19.526Z,10.15
2023-03-19T01:20:52.851Z,11.65
2023-03-19T01:23:26.334Z,10.65
2023-03-19T01:25:59.912Z,12.38
2023-03-19T01:28:35.002Z,9.40
2023-03-19T01:31:09.621Z,11.45
2023-03-19T01:33:47.676Z,10.93
2023-03-19T01:36:33.454Z,10.38
2023-03-19T01:39:09.159Z,10.27
2023-03-19T01:41:42.490Z,11.27
2023-03-19T01:44:35.742Z,10.65
2023-03-19T01:47:32.608Z,9.88
2023-03-19T01:50:36.032Z,9.32
2023-03-19T01:53:31.036Z,12.48
2023-03-19T01:56:16.603Z,9.45
2023-03-19T01:59:07.773Z,11.50
2023-03-19T02:02:07.785Z,9.98
2023-03-19T02:04:44.719Z,14.75
2023-03-19T02:07:20.168Z,11.95
2023-03-19T02:09:54.294Z,15.63
2023-03-19T02:12:27.865Z,11.00
2023-03-19T02:15:01.192Z,8.98
2023-03-19T02:17:35.987Z,10.60
2023-03-19T02:20:15.944Z,10.27
2023-03-19T02:22:58.767Z,10.10
2023-03-19T02:25:38.614Z,13.10
2023-03-19T02:28:16.759Z,11.65
2023-03-19T02:30:50.571Z,10.32
2023-03-19T02:33:23.946Z,10.15
2023-03-19T02:35:58.787Z,10.00
2023-03-19T02:38:34.792Z,10.02
2023-03-19T02:41:09.840Z,11.38
2023-03-19T02:43:44.568Z,10.27
2023-03-19T02:46:17.933Z,10.23
2023-03-19T02:48:52.594Z,9.20
2023-03-19T02:51:26.200Z,7.90
2023-03-19T02:54:00.979Z,13.85
2023-03-19T02:56:34.769Z,9.05
2023-03-19T03:01:42.976Z,9.15
2023-03-19T03:04:16.772Z,15.73
2023-03-19T03:06:51.021Z,9.10
2023-03-19T03:09:24.947Z,9.25
2023-03-19T03:11:58.407Z,7.13
2023-03-19T03:14:33.180Z,8.77
2023-03-19T03:17:08.407Z,9.13
2023-03-19T03:19:42.024Z,10.82
2023-03-19T03:22:15.342Z,8.00
2023-03-19T03:24:48.600Z,10.95
2023-03-19T03:27:21.942Z,8.70
2023-03-19T03:29:56.739Z,9.98
2023-03-19T03:32:30.211Z,7.43
2023-03-19T03:35:04.057Z,9.60
2023-03-19T03:40:12.357Z,11.27
2023-03-19T03:42:46.155Z,10.23
2023-03-19T03:50:27.207Z,9.82
2023-03-19T03:53:03.084Z,8.43
2023-03-19T03:55:36.957Z,6.38
2023-03-19T04:00:44.788Z,10.40
2023-03-19T04:03:18.398Z,9.80
2023-03-19T04:08:26.877Z,8.35
2023-03-19T04:11:00.399Z,8.73
2023-03-19T04:13:36.823Z,9.07
2023-03-19T04:16:12.844Z,13.70
2023-03-19T04:18:46.270Z,11.00
2023-03-19T04:21:19.892Z,7.03
2023-03-19T04:23:53.387Z,10.07
2023-03-19T04:26:27.039Z,13.05
2023-03-19T04:29:00.637Z,8.32
2023-03-19T04:31:35.760Z,7.78
2023-03-19T04:34:09.177Z,10.48
2023-03-19T04:36:42.576Z,10.23
2023-03-19T04:39:15.991Z,7.90
2023-03-19T04:41:49.646Z,10.00
2023-03-19T04:44:42.120Z,7.95
2023-03-19T04:47:18.241Z,9.23
2023-03-19T04:50:01.501Z,8.52
2023-03-19T04:52:39.364Z,12.52
2023-03-19T04:55:13.190Z,10.48
2023-03-19T04:57:59.910Z,10.38
2023-03-19T05:00:35.854Z,9.18
2023-03-19T05:03:11.508Z,9.38
2023-03-19T05:05:45.050Z,10.40
2023-03-19T05:08:19.169Z,7.63
2023-03-19T05:10:52.581Z,10.00
2023-03-19T05:13:25.939Z,18.48
2023-03-19T05:16:00.730Z,10.93
2023-03-19T05:21:12.611Z,8.95
2023-03-19T05:23:46.190Z,8.95
2023-03-19T05:26:19.563Z,8.32
2023-03-19T05:29:14.574Z,13.27
2023-03-19T05:32:03.134Z,11.15
2023-03-19T05:34:39.292Z,9.30
2023-03-19T05:37:13.075Z,8.93
2023-03-19T05:39:47.839Z,10.20
2023-03-19T05:42:21.304Z,7.13
2023-03-19T05:44:54.647Z,12.07
2023-03-19T05:47:31.841Z,7.95
2023-03-19T05:50:07.725Z,8.68
2023-03-19T05:52:41.104Z,13.57
2023-03-19T05:55:14.547Z,10.00
2023-03-19T05:57:53.613Z,10.60
2023-03-19T06:00:30.963Z,7.05
2023-03-19T06:03:04.346Z,10.57
2023-03-19T06:05:52.420Z,10.32
2023-03-19T06:08:48.638Z,10.48
2023-03-19T06:11:26.410Z,12.35
2023-03-19T06:14:22.653Z,12.45
2023-03-19T06:17:12.788Z,10.48
2023-03-19T06:19:46.333Z,7.15
2023-03-19T06:22:21.136Z,9.63
2023-03-19T06:24:55.074Z,12.63
2023-03-19T06:27:28.756Z,12.38
2023-03-19T06:30:13.419Z,9.15
2023-03-19T06:32:47.076Z,9.07
2023-03-19T06:35:20.982Z,9.77
2023-03-19T06:37:57.529Z,12.80
2023-03-19T06:40:30.799Z,9.35
2023-03-19T06:43:04.149Z,10.68
2023-03-19T06:45:37.506Z,9.90
2023-03-19T06:48:11.256Z,12.98
2023-03-19T06:50:46.107Z,9.95
2023-03-19T06:53:21.141Z,9.07
2023-03-19T06:55:54.736Z,10.68
2023-03-19T06:58:28.159Z,8.35
2023-03-19T07:01:02.099Z,9.63
2023-03-19T07:06:08.845Z,8.85
2023-03-19T07:08:46.287Z,8.25
2023-03-19T07:11:19.659Z,10.80
2023-03-19T07:13:53.097Z,11.98
2023-03-19T07:16:26.564Z,10.60
2023-03-19T07:18:59.892Z,8.70
2023-03-19T07:21:33.457Z,8.73
2023-03-19T07:24:08.376Z,12.95
2023-03-19T07:26:42.371Z,10.88
2023-03-19T07:29:15.755Z,9.45
2023-03-19T07:31:49.113Z,15.02
2023-03-19T07:34:23.176Z,10.15
2023-03-19T07:36:56.754Z,8.82
2023-03-19T07:39:31.472Z,9.65
2023-03-19T07:42:05.574Z,12.57
2023-03-19T07:44:39.164Z,12.75
2023-03-19T07:47:27.851Z,11.05
2023-03-19T07:50:01.913Z,8.55
2023-03-19T07:52:35.324Z,9.98
2023-03-19T07:55:11.392Z,12.13
2023-03-19T07:57:44.742Z,8.35
2023-03-19T08:00:20.015Z,10.38
2023-03-19T08:02:53.728Z,8.38
2023-03-19T08:05:27.328Z,11.95
2023-03-19T08:08:00.725Z,9.75
2023-03-19T08:10:37.905Z,14.05
2023-03-19T08:13:11.580Z,14.73
2023-03-19T08:15:45.042Z,16.92
2023-03-19T08:18:18.794Z,10.65
2023-03-19T08:23:27.102Z,12.43
2023-03-19T08:26:02.230Z,21.00
2023-03-19T08:28:37.408Z,25.80
2023-03-19T08:31:12.009Z,24.92
2023-03-19T08:33:45.887Z,20.55
2023-03-19T08:36:19.554Z,23.52
2023-03-19T08:41:29.828Z,15.70
2023-03-19T08:44:03.463Z,15.55
2023-03-19T08:46:37.547Z,17.02
2023-03-19T08:49:11.025Z,17.92
2023-03-19T08:51:44.714Z,24.83
2023-03-19T08:54:18.922Z,21.42
2023-03-19T08:56:54.822Z,24.23
2023-03-19T08:59:28.180Z,19.35
2023-03-19T09:02:01.752Z,35.80
2023-03-19T09:04:39.025Z,20.88
2023-03-19T09:07:15.708Z,17.83
2023-03-19T09:09:49.308Z,19.55
2023-03-19T09:12:24.003Z,23.27
2023-03-19T09:14:57.340Z,19.92
2023-03-19T09:17:30.632Z,16.02
2023-03-19T09:20:05.855Z,17.30
2023-03-19T09:22:39.329Z,24.25
2023-03-19T09:25:13.018Z,16.52
2023-03-19T09:27:47.730Z,13.93
2023-03-19T09:30:21.847Z,17.65
2023-03-19T09:32:55.975Z,21.65
2023-03-19T09:35:31.414Z,16.05
2023-03-19T09:38:04.839Z,17.48
2023-03-19T09:40:42.578Z,13.13
2023-03-19T09:43:40.878Z,18.92
2023-03-19T09:46:17.590Z,15.38
2023-03-19T09:48:56.036Z,12.68
2023-03-19T09:51:36.130Z,14.05
2023-03-19T09:54:21.540Z,17.25
2023-03-19T09:56:55.389Z,14.18
2023-03-19T10:02:25.420Z,12.30
2023-03-19T10:05:07.880Z,15.63
2023-03-19T10:07:57.794Z,11.50
2023-03-19T10:10:49.544Z,10.95
2023-03-19T10:13:37.833Z,13.52
2023-03-19T10:16:18.107Z,12.00
2023-03-19T10:18:53.817Z,12.43
2023-03-19T10:21:34.266Z,12.88
2023-03-19T10:24:13.487Z,13.52
2023-03-19T10:26:47.357Z,14.43
2023-03-19T10:32:09.364Z,11.02
2023-03-19T10:34:43.854Z,13.38
2023-03-19T10:37:20.672Z,11.52
2023-03-19T10:39:57.164Z,11.65
2023-03-19T10:42:48.464Z,9.82
2023-03-19T10:45:27.630Z,12.23
2023-03-19T10:48:03.828Z,12.75
2023-03-19T10:50:40.355Z,13.07
2023-03-19T10:53:30.410Z,11.35
2023-03-19T10:56:06.472Z,11.75
2023-03-19T10:58:40.467Z,11.10
2023-03-19T11:01:14.638Z,8.40
2023-03-19T11:03:56.489Z,10.77
2023-03-19T11:06:34.083Z,15.90
2023-03-19T11:09:16.638Z,10.93
2023-03-19T11:11:53.338Z,16.00
2023-03-19T11:14:32.482Z,9.77
2023-03-19T11:17:17.120Z,11.10
2023-03-19T11:19:54.512Z,10.75
2023-03-19T11:22:31.721Z,10.05
2023-03-19T11:25:18.635Z,16.33
2023-03-19T11:28:01.166Z,11.23
2023-03-19T11:30:43.050Z,12.45
2023-03-19T11:33:54.769Z,11.38
2023-03-19T11:36:34.034Z,16.13
2023-03-19T11:39:19.954Z,12.63
2023-03-19T11:42:12.251Z,11.35
2023-03-19T11:44:55.456Z,12.40
2023-03-19T11:47:37.947Z,9.70
2023-03-19T11:50:23.381Z,10.75
2023-03-19T11:53:13.174Z,11.40
2023-03-19T11:55:54.554Z,12.60
2023-03-19T11:58:48.333Z,10.18
2023-03-19T12:01:39.446Z,13.55
2023-03-19T12:04:37.502Z,13.77
2023-03-19T12:07:20.775Z,10.13
2023-03-19T12:10:04.246Z,11.38
2023-03-19T12:12:46.406Z,10.07
2023-03-19T12:15:28.024Z,10.38
2023-03-19T12:18:12.625Z,11.25
2023-03-19T12:20:56.739Z,10.90
2023-03-19T12:26:14.486Z,11.63
2023-03-19T12:28:55.483Z,7.78
2023-03-19T12:31:41.455Z,8.75
2023-03-19T12:34:24.934Z,10.05
2023-03-19T12:37:15.075Z,6.60
2023-03-19T12:39:55.865Z,7.72
2023-03-19T12:42:36.827Z,8.57
2023-03-19T12:45:23.340Z,10.98
2023-03-19T12:48:03.573Z,7.78
2023-03-19T12:50:43.154Z,10.23
2023-03-19T12:53:27.776Z,9.65
2023-03-19T12:56:08.038Z,11.10
2023-03-19T12:58:52.245Z,6.95
2023-03-19T13:01:30.074Z,6.22
2023-03-19T13:04:10.252Z,8.75
2023-03-19T13:06:50.907Z,7.10
2023-03-19T13:09:31.278Z,11.05
2023-03-19T13:12:10.474Z,9.18
2023-03-19T13:14:53.639Z,7.00
2023-03-19T13:17:36.340Z,11.35
2023-03-19T13:20:20.525Z,9.40
2023-03-19T13:25:35.907Z,13.48
2023-03-19T13:28:12.252Z,8.82
2023-03-19T13:31:01.582Z,6.63
2023-03-19T13:33:37.573Z,8.32
2023-03-19T13:36:15.563Z,11.15
2023-03-19T13:38:51.517Z,7.70
2023-03-19T13:41:51.969Z,9.88
2023-03-19T13:44:37.062Z,10.05
2023-03-19T13:47:42.322Z,7.60
2023-03-19T13:50:28.822Z,6.82
2023-03-19T13:53:36.254Z,8.75
2023-03-19T13:56:30.285Z,11.27
2023-03-19T14:01:56.077Z,10.30
2023-03-19T14:04:32.773Z,7.50
2023-03-19T14:07:14.120Z,7.50
2023-03-19T14:09:49.432Z,12.32
2023-03-19T14:12:30.888Z,14.02
2023-03-19T14:15:17.845Z,10.30
2023-03-19T14:17:58.767Z,7.13
2023-03-19T14:20:40.461Z,9.95
2023-03-19T14:23:38.483Z,7.50
2023-03-19T14:26:20.040Z,6.22
2023-03-19T14:29:03.578Z,10.60
2023-03-19T14:31:43.964Z,6.15
2023-03-19T14:34:22.725Z,8.00
2023-03-19T14:37:03.265Z,7.30
2023-03-19T14:39:43.034Z,7.13
2023-03-19T14:42:22.017Z,9.68
2023-03-19T14:45:31.437Z,6.25
2023-03-19T14:48:39.092Z,5.82
2023-03-19T14:51:36.564Z,6.15
2023-03-19T14:54:24.304Z,5.03
2023-03-19T14:56:58.326Z,7.15
2023-03-19T14:59:39.244Z,6.68
2023-03-19T15:02:37.959Z,5.22
2023-03-19T15:05:19.350Z,6.30
2023-03-19T15:07:55.825Z,8.27
2023-03-19T15:10:36.805Z,4.82
2023-03-19T15:13:22.975Z,5.28
2023-03-19T15:16:14.545Z,8.95
2023-03-19T15:18:47.984Z,7.68
2023-03-19T15:21:22.703Z,5.20
2023-03-19T15:23:56.519Z,20.50
2023-03-19T15:29:12.234Z,8.13
2023-03-19T15:31:54.815Z,4.68
2023-03-19T15:34:37.255Z,17.02
2023-03-19T15:37:14.181Z,10.50
2023-03-19T15:39:51.470Z,9.38
2023-03-19T15:42:28.640Z,8.02
2023-03-19T15:45:06.359Z,8.38
2023-03-19T15:47:45.672Z,8.95
2023-03-19T15:50:22.480Z,4.75
2023-03-19T15:52:58.905Z,9.43
2023-03-19T15:55:34.821Z,6.85
2023-03-19T15:58:13.084Z,7.53
2023-03-19T16:00:47.029Z,5.82
2023-03-19T16:03:22.230Z,7.22
2023-03-19T16:06:02.795Z,17.15
2023-03-19T16:08:36.215Z,10.82
2023-03-19T16:11:23.533Z,14.35
2023-03-19T16:14:02.769Z,4.30
2023-03-19T16:16:38.655Z,5.97
2023-03-19T16:19:31.049Z,6.63
2023-03-19T16:22:12.617Z,13.90
2023-03-19T16:24:48.276Z,7.45
2023-03-19T16:27:26.977Z,3.83
2023-03-19T16:30:02.355Z,4.80
2023-03-19T16:32:38.294Z,7.22
2023-03-19T16:35:16.022Z,4.32
2023-03-19T16:37:52.180Z,3.13
2023-03-19T16:40:43.961Z,3.83
2023-03-19T16:43:19.702Z,4.15
2023-03-19T16:46:08.864Z,4.95
2023-03-19T16:48:42.199Z,5.57
2023-03-19T16:51:18.358Z,4.07
2023-03-19T16:53:51.871Z,4.97
2023-03-19T16:56:25.507Z,4.45
2023-03-19T16:58:59.163Z,4.90
2023-03-19T17:01:33.860Z,5.65
2023-03-19T17:04:13.558Z,9.38
2023-03-19T17:06:46.907Z,10.88
2023-03-19T17:09:20.259Z,4.28
2023-03-19T17:11:54.111Z,3.80
2023-03-19T17:14:27.438Z,4.20
2023-03-19T17:17:02.972Z,5.72
2023-03-19T17:19:37.317Z,8.43
2023-03-19T17:22:13.141Z,3.97
2023-03-19T17:24:46.712Z,5.78
2023-03-19T17:27:20.268Z,6.05
2023-03-19T17:29:53.680Z,7.88
2023-03-19T17:32:28.981Z,8.15
2023-03-19T17:35:02.511Z,14.32
2023-03-19T17:37:36.052Z,10.23
2023-03-19T17:40:17.861Z,10.90
2023-03-19T17:42:51.940Z,14.63
2023-03-19T17:45:29.753Z,5.90
2023-03-19T17:48:04.800Z,7.68
2023-03-19T17:50:38.194Z,6.28
2023-03-19T17:53:14.042Z,5.70
2023-03-19T17:55:47.688Z,6.32
2023-03-19T17:58:23.541Z,8.10
2023-03-19T18:00:57.156Z,6.80
2023-03-19T18:03:35.179Z,6.68
2023-03-19T18:06:16.211Z,8.68
2023-03-19T18:08:49.686Z,8.68
2023-03-19T18:11:23.231Z,8.63
2023-03-19T18:13:56.617Z,8.35
2023-03-19T18:16:32.282Z,10.80
2023-03-19T18:19:18.105Z,11.48
2023-03-19T18:21:51.452Z,13.30
2023-03-19T18:24:25.114Z,10.18
2023-03-19T18:26:58.474Z,11.32
2023-03-19T18:29:31.879Z,10.50
2023-03-19T18:32:08.305Z,11.75
2023-03-19T18:34:51.114Z,12.95
2023-03-19T18:37:24.954Z,12.73
2023-03-19T18:39:58.328Z,19.50
2023-03-19T18:42:31.632Z,11.02
2023-03-19T18:45:05.964Z,20.67
2023-03-19T18:47:39.353Z,18.70
2023-03-19T18:50:22.785Z,13.05
2023-03-19T18:52:57.730Z,13.25
2023-03-19T18:55:31.986Z,13.65
2023-03-19T18:58:05.405Z,22.38
2023-03-19T19:00:38.878Z,20.80
2023-03-19T19:03:15.434Z,25.48
2023-03-19T19:05:53.703Z,21.35
2023-03-19T19:08:29.539Z,19.88
2023-03-19T19:11:04.334Z,14.77
2023-03-19T19:13:53.392Z,21.05
2023-03-19T19:16:35.099Z,20.73
2023-03-19T19:19:16.662Z,20.73
2023-03-19T19:21:51.826Z,13.18
2023-03-19T19:24:25.232Z,17.60
2023-03-19T19:27:01.570Z,19.67
2023-03-19T19:29:35.160Z,27.85
2023-03-19T19:32:19.134Z,16.80
2023-03-19T19:34:52.868Z,20.55
2023-03-19T19:37:27.571Z,20.35
2023-03-19T19:40:00.880Z,16.42
2023-03-19T19:42:34.414Z,20.88
2023-03-19T19:45:15.455Z,22.90
2023-03-19T19:47:48.999Z,15.32
2023-03-19T19:50:23.918Z,18.23
2023-03-19T19:52:58.935Z,17.55
2023-03-19T19:55:32.470Z,14.93
2023-03-19T19:58:08.605Z,14.32
2023-03-19T20:00:45.646Z,17.45
2023-03-19T20:03:26.331Z,19.83
2023-03-19T20:06:00.869Z,23.33
2023-03-19T20:08:35.764Z,18.98
2023-03-19T20:11:20.292Z,20.95
2023-03-19T20:13:55.768Z,22.60
2023-03-19T20:16:29.566Z,20.40
2023-03-19T20:19:02.997Z,19.52
2023-03-19T20:21:36.298Z,16.88
2023-03-19T20:24:11.491Z,18.25
2023-03-19T20:26:45.086Z,16.85
2023-03-19T20:29:18.482Z,19.05
2023-03-19T20:31:51.833Z,19.75
2023-03-19T20:34:38.459Z,21.10
2023-03-19T20:37:12.533Z,19.67
2023-03-19T20:39:47.206Z,19.02
2023-03-19T20:42:20.872Z,20.60
2023-03-19T20:44:57.631Z,20.92
2023-03-19T20:47:32.939Z,17.92
2023-03-19T20:50:09.014Z,21.80
2023-03-19T20:52:44.294Z,18.10
2023-03-19T20:55:21.660Z,18.50
2023-03-19T20:57:55.477Z,20.95
2023-03-19T21:00:31.006Z,18.38
2023-03-19T21:03:04.391Z,26.05
2023-03-19T21:05:39.150Z,18.42
2023-03-19T21:08:16.710Z,23.92
2023-03-19T21:10:53.016Z,20.40
2023-03-19T21:13:26.373Z,20.00
2023-03-19T21:15:59.918Z,18.33
2023-03-19T21:18:33.198Z,17.80
2023-03-19T21:21:07.813Z,17.77
2023-03-19T21:23:42.785Z,18.65
2023-03-19T21:26:22.007Z,18.65
2023-03-19T21:28:59.878Z,17.90
2023-03-19T21:31:33.487Z,18.17
2023-03-19T21:34:06.896Z,18.83
2023-03-19T21:36:40.429Z,20.55
2023-03-19T21:39:13.720Z,15.73
2023-03-19T21:41:48.592Z,15.90
2023-03-19T21:44:24.516Z,19.77
2023-03-19T21:46:58.051Z,18.83
2023-03-19T21:49:31.473Z,17.42
2023-03-19T21:52:04.790Z,18.33
2023-03-19T21:54:38.103Z,15.13
2023-03-19T21:57:15.488Z,16.63
2023-03-19T21:59:48.791Z,16.13
2023-03-19T22:02:46.794Z,16.48
2023-03-19T22:05:26.085Z,19.50
2023-03-19T22:07:59.603Z,17.27
2023-03-19T22:10:32.953Z,20.80
2023-03-19T22:13:07.937Z,16.58
2023-03-19T22:15:41.616Z,18.50
2023-03-19T22:18:16.792Z,16.48
2023-03-19T22:20:51.721Z,15.50
2023-03-19T22:23:25.517Z,19.33
2023-03-19T22:28:35.400Z,19.08
2023-03-19T22:31:08.890Z,16.98
2023-03-19T22:33:42.402Z,17.88
2023-03-19T22:36:16.135Z,16.73
2023-03-19T22:41:28.053Z,17.23
2023-03-19T22:44:06.605Z,15.32
2023-03-19T22:46:39.950Z,16.63
2023-03-19T22:49:16.365Z,16.88
2023-03-19T22:51:49.664Z,15.25
2023-03-19T22:54:22.937Z,16.92
2023-03-19T22:56:56.235Z,16.95
2023-03-19T22:59:31.333Z,16.27
2023-03-19T23:02:04.864Z,15.63
2023-03-19T23:04:38.729Z,19.25
2023-03-19T23:07:14.710Z,18.65
2023-03-19T23:09:48.107Z,14.48
2023-03-19T23:12:22.007Z,16.75
2023-03-19T23:17:30.001Z,16.40
2023-03-19T23:20:12.217Z,16.90
2023-03-19T23:22:45.793Z,17.65
2023-03-19T23:25:21.546Z,17.13
2023-03-19T23:27:57.712Z,16.50
2023-03-19T23:30:33.978Z,16.42
2023-03-19T23:33:11.795Z,15.93
2023-03-19T23:35:45.182Z,21.02
2023-03-19T23:38:18.552Z,16.92
2023-03-19T23:40:53.968Z,17.90
2023-03-19T23:43:30.074Z,15.48
2023-03-19T23:46:04.900Z,13.75
2023-03-19T23:48:39.669Z,15.10
2023-03-19T23:51:14.656Z,14.38
2023-03-19T23:53:47.977Z,15.77
2023-03-19T23:56:23.488Z,17.15
2023-03-19T23:59:00.061Z,13.77
